createdAt,value
2023-01-12T00:02:19.533Z,74.56
2023-01-12T00:04:47.957Z,75.24
2023-01-12T00:07:18.267Z,75.10
2023-01-12T00:09:46.634Z,75.31
2023-01-12T00:12:15.063Z,77.01
2023-01-12T00:14:43.424Z,76.62
2023-01-12T00:17:16.699Z,77.12
2023-01-12T00:19:46.358Z,79.16
2023-01-12T00:22:19.421Z,85.60
2023-01-12T00:24:50.053Z,84.08
2023-01-12T00:27:20.483Z,80.80
2023-01-12T00:29:48.958Z,80.89
2023-01-12T00:32:18.992Z,79.29
2023-01-12T00:34:49.380Z,86.01
2023-01-12T00:37:18.164Z,94.65
2023-01-12T00:40:00.794Z,99.85
2023-01-12T00:42:56.737Z,100.00
2023-01-12T00:45:25.470Z,100.00
2023-01-12T00:47:54.705Z,100.00
2023-01-12T00:50:24.507Z,100.00
2023-01-12T00:52:52.794Z,100.00
2023-01-12T00:55:21.070Z,100.00
2023-01-12T00:57:49.499Z,100.00
2023-01-12T01:00:18.996Z,100.00
2023-01-12T01:02:47.928Z,100.00
2023-01-12T01:05:17.895Z,100.00
2023-01-12T01:07:48.140Z,100.00
2023-01-12T01:10:17.421Z,100.00
2023-01-12T01:12:45.809Z,100.00
2023-01-12T01:15:14.550Z,96.24
2023-01-12T01:17:42.806Z,95.13
2023-01-12T01:20:12.644Z,97.57
2023-01-12T01:22:40.996Z,98.12
2023-01-12T01:25:11.239Z,98.62
2023-01-12T01:27:39.579Z,100.00
2023-01-12T01:30:09.169Z,100.00
2023-01-12T01:32:37.673Z,100.00
2023-01-12T01:35:06.377Z,98.24
2023-01-12T01:37:35.086Z,99.27
2023-01-12T01:40:03.316Z,95.50
2023-01-12T01:42:33.032Z,97.87
2023-01-12T01:45:03.986Z,97.92
2023-01-12T01:47:39.096Z,92.41
2023-01-12T01:50:16.271Z,95.18
2023-01-12T01:52:48.469Z,92.60
2023-01-12T01:55:23.720Z,95.85
2023-01-12T01:57:58.571Z,93.17
2023-01-12T02:00:27.221Z,90.55
2023-01-12T02:02:56.712Z,92.20
2023-01-12T02:05:27.844Z,90.02
2023-01-12T02:08:00.103Z,89.86
2023-01-12T02:10:28.406Z,90.08
2023-01-12T02:13:11.955Z,91.60
2023-01-12T02:16:11.083Z,95.89
2023-01-12T02:18:46.916Z,96.95
2023-01-12T02:21:38.614Z,98.87
2023-01-12T02:24:40.655Z,94.13
2023-01-12T02:27:22.834Z,95.40
2023-01-12T02:30:24.590Z,94.79
2023-01-12T02:33:06.479Z,94.10
2023-01-12T02:35:44.584Z,100.00
2023-01-12T02:38:23.219Z,100.00
2023-01-12T02:41:01.799Z,100.00
2023-01-12T02:43:31.642Z,100.00
2023-01-12T02:46:11.363Z,100.00
2023-01-12T02:48:47.335Z,98.42
2023-01-12T02:51:20.166Z,94.57
2023-01-12T02:53:51.662Z,92.57
2023-01-12T02:56:25.633Z,90.98
2023-01-12T02:58:58.096Z,89.67
2023-01-12T03:01:28.556Z,95.49
2023-01-12T03:04:02.547Z,100.00
2023-01-12T03:06:43.014Z,100.00
2023-01-12T03:09:13.591Z,100.00
2023-01-12T03:11:44.930Z,100.00
2023-01-12T03:14:15.693Z,100.00
2023-01-12T03:16:44.141Z,100.00
2023-01-12T03:19:17.846Z,100.00
2023-01-12T03:21:51.213Z,100.00
2023-01-12T03:24:24.491Z,100.00
2023-01-12T03:26:57.467Z,100.00
2023-01-12T03:29:31.866Z,100.00
2023-01-12T03:32:00.532Z,100.00
2023-01-12T03:34:30.439Z,100.00
2023-01-12T03:37:04.568Z,100.00
2023-01-12T03:39:39.470Z,100.00
2023-01-12T03:42:14.212Z,100.00
2023-01-12T03:44:54.761Z,100.00
2023-01-12T03:47:28.674Z,100.00
2023-01-12T03:50:04.074Z,97.74
2023-01-12T03:52:35.372Z,94.79
2023-01-12T03:55:07.692Z,94.00
2023-01-12T03:57:37.741Z,96.79
2023-01-12T04:00:08.896Z,98.92
2023-01-12T04:02:37.219Z,100.00
2023-01-12T04:05:08.979Z,100.00
2023-01-12T04:07:37.208Z,100.00
2023-01-12T04:10:06.220Z,100.00
2023-01-12T04:12:33.649Z,100.00
2023-01-12T04:15:01.888Z,100.00
2023-01-12T04:17:30.222Z,99.64
2023-01-12T04:19:58.533Z,98.04
2023-01-12T04:22:47.901Z,96.81
2023-01-12T04:25:17.882Z,94.31
2023-01-12T04:27:48.615Z,92.79
2023-01-12T04:30:17.960Z,93.38
2023-01-12T04:32:46.654Z,92.75
2023-01-12T04:35:16.496Z,92.37
2023-01-12T04:37:47.312Z,91.53
2023-01-12T04:40:17.097Z,93.43
2023-01-12T04:43:08.473Z,92.57
2023-01-12T04:45:39.949Z,91.16
2023-01-12T04:48:11.485Z,92.22
2023-01-12T04:50:40.509Z,92.50
2023-01-12T04:53:12.318Z,92.32
2023-01-12T04:55:43.092Z,91.27
2023-01-12T04:58:11.847Z,90.92
2023-01-12T05:00:40.116Z,91.45
2023-01-12T05:03:08.435Z,91.00
2023-01-12T05:05:37.694Z,90.80
2023-01-12T05:08:24.689Z,91.29
2023-01-12T05:10:55.878Z,90.47
2023-01-12T05:13:28.177Z,89.87
2023-01-12T05:15:56.778Z,89.68
2023-01-12T05:18:25.133Z,91.98
2023-01-12T05:20:53.492Z,98.75
2023-01-12T05:23:21.818Z,100.00
2023-01-12T05:25:52.002Z,100.00
2023-01-12T05:28:21.749Z,100.00
2023-01-12T05:30:50.082Z,100.00
2023-01-12T05:33:19.540Z,100.00
2023-01-12T05:35:48.187Z,99.87
2023-01-12T05:38:16.521Z,97.02
2023-01-12T05:40:47.437Z,95.63
2023-01-12T05:43:32.896Z,94.89
2023-01-12T05:46:06.336Z,95.13
2023-01-12T05:48:34.887Z,99.96
2023-01-12T05:51:03.861Z,100.00
2023-01-12T05:53:32.371Z,99.94
2023-01-12T05:56:06.652Z,97.56
2023-01-12T05:58:35.029Z,97.41
2023-01-12T06:01:08.202Z,97.33
2023-01-12T06:03:36.653Z,99.53
2023-01-12T06:06:05.884Z,99.05
2023-01-12T06:08:34.289Z,99.97
2023-01-12T06:11:03.757Z,99.56
2023-01-12T06:13:49.129Z,100.00
2023-01-12T06:16:18.966Z,99.92
2023-01-12T06:18:47.482Z,97.36
2023-01-12T06:21:16.040Z,96.44
2023-01-12T06:23:44.310Z,96.33
2023-01-12T06:26:12.558Z,97.09
2023-01-12T06:28:43.054Z,100.00
2023-01-12T06:31:13.348Z,100.00
2023-01-12T06:33:44.259Z,100.00
2023-01-12T06:36:13.338Z,100.00
2023-01-12T06:38:41.958Z,97.64
2023-01-12T06:41:33.688Z,94.77
2023-01-12T06:44:02.045Z,92.63
2023-01-12T06:46:30.400Z,90.77
2023-01-12T06:49:00.373Z,87.05
2023-01-12T06:51:28.765Z,81.30
2023-01-12T06:53:57.205Z,80.07
2023-01-12T06:56:25.454Z,76.78
2023-01-12T06:58:53.839Z,75.08
2023-01-12T07:01:22.245Z,74.01
2023-01-12T07:03:50.636Z,71.55
2023-01-12T07:06:20.356Z,72.01
2023-01-12T07:08:48.675Z,73.90
2023-01-12T07:11:17.181Z,73.72
2023-01-12T07:13:45.501Z,73.94
2023-01-12T07:16:14.152Z,72.79
2023-01-12T07:18:42.658Z,72.63
2023-01-12T07:21:13.634Z,73.12
2023-01-12T07:23:43.860Z,71.09
2023-01-12T07:26:12.564Z,71.71
2023-01-12T07:28:42.904Z,70.07
2023-01-12T07:31:11.254Z,69.97
2023-01-12T07:33:40.167Z,68.40
2023-01-12T07:36:08.890Z,67.52
2023-01-12T07:38:38.332Z,67.92
2023-01-12T07:41:28.047Z,67.45
2023-01-12T07:43:56.316Z,68.99
2023-01-12T07:46:24.808Z,65.79
2023-01-12T07:48:53.131Z,63.41
2023-01-12T07:51:21.432Z,61.36
2023-01-12T07:53:49.976Z,60.00
2023-01-12T07:56:19.594Z,61.27
2023-01-12T07:58:49.078Z,61.27
2023-01-12T08:01:17.870Z,61.30
2023-01-12T08:03:46.285Z,60.87
2023-01-12T08:06:15.401Z,59.27
2023-01-12T08:08:43.675Z,57.84
2023-01-12T08:11:12.829Z,59.56
2023-01-12T08:13:42.468Z,60.19
2023-01-12T08:16:15.986Z,56.50
2023-01-12T08:18:50.006Z,55.78
2023-01-12T08:21:23.327Z,56.53
2023-01-12T08:23:55.029Z,54.81
2023-01-12T08:26:27.969Z,55.12
2023-01-12T08:29:03.899Z,54.58
2023-01-12T08:31:33.772Z,53.88
2023-01-12T08:34:02.100Z,53.94
2023-01-12T08:36:32.547Z,52.81
2023-01-12T08:39:01.629Z,51.96
2023-01-12T08:41:37.713Z,52.07
2023-01-12T08:44:10.775Z,50.19
2023-01-12T08:46:40.908Z,49.13
2023-01-12T08:49:11.558Z,46.81
2023-01-12T08:51:45.986Z,47.01
2023-01-12T08:54:16.723Z,45.54
2023-01-12T08:56:45.274Z,45.51
2023-01-12T08:59:15.054Z,46.97
2023-01-12T09:01:43.581Z,46.19
2023-01-12T09:04:12.360Z,44.67
2023-01-12T09:06:42.551Z,44.95
2023-01-12T09:09:12.448Z,45.36
2023-01-12T09:11:42.238Z,46.06
2023-01-12T09:14:10.928Z,46.67
2023-01-12T09:16:41.138Z,46.15
2023-01-12T09:19:09.939Z,45.36
2023-01-12T09:21:39.909Z,44.28
2023-01-12T09:24:08.577Z,42.10
2023-01-12T09:26:39.562Z,42.14
2023-01-12T09:29:09.067Z,40.92
2023-01-12T09:31:38.840Z,40.69
2023-01-12T09:34:08.624Z,41.14
2023-01-12T09:36:38.382Z,39.38
2023-01-12T09:39:10.233Z,39.46
2023-01-12T09:42:02.725Z,39.00
2023-01-12T09:44:52.067Z,37.96
2023-01-12T09:47:28.055Z,37.52
2023-01-12T09:50:10.784Z,40.48
2023-01-12T09:52:44.971Z,40.04
2023-01-12T09:55:17.742Z,40.03
2023-01-12T09:58:23.961Z,39.56
2023-01-12T10:00:53.215Z,35.87
2023-01-12T10:03:29.971Z,36.87
2023-01-12T10:06:01.699Z,38.37
2023-01-12T10:08:35.758Z,37.32
2023-01-12T10:11:13.089Z,38.31
2023-01-12T10:13:57.362Z,40.52
2023-01-12T10:16:36.317Z,37.77
2023-01-12T10:19:14.426Z,37.76
2023-01-12T10:21:44.956Z,37.63
2023-01-12T10:24:14.463Z,37.15
2023-01-12T10:26:44.468Z,37.27
2023-01-12T10:29:13.879Z,39.18
2023-01-12T10:31:42.304Z,37.01
2023-01-12T10:34:12.616Z,36.26
2023-01-12T10:36:47.381Z,36.33
2023-01-12T10:39:32.383Z,37.26
2023-01-12T10:42:38.071Z,36.10
2023-01-12T10:45:16.315Z,33.99
2023-01-12T10:47:45.976Z,34.30
2023-01-12T10:50:26.508Z,35.82
2023-01-12T10:53:02.995Z,35.41
2023-01-12T10:55:33.903Z,37.12
2023-01-12T10:58:02.600Z,35.84
2023-01-12T11:00:31.656Z,34.76
2023-01-12T11:03:00.053Z,34.21
2023-01-12T11:05:31.514Z,34.65
2023-01-12T11:08:02.171Z,34.20
2023-01-12T11:10:32.258Z,34.66
2023-01-12T11:13:03.684Z,34.50
2023-01-12T11:15:39.167Z,35.01
2023-01-12T11:18:32.599Z,33.81
2023-01-12T11:21:05.736Z,35.06
2023-01-12T11:23:41.959Z,33.73
2023-01-12T11:26:18.809Z,33.47
2023-01-12T11:28:51.055Z,34.75
2023-01-12T11:31:23.835Z,36.49
2023-01-12T11:33:56.752Z,34.60
2023-01-12T11:36:28.660Z,35.29
2023-01-12T11:39:06.876Z,34.93
2023-01-12T11:41:40.600Z,36.49
2023-01-12T11:44:17.764Z,36.03
2023-01-12T11:46:50.741Z,39.16
2023-01-12T11:49:24.781Z,42.11
2023-01-12T11:51:58.190Z,36.59
2023-01-12T11:54:30.158Z,40.42
2023-01-12T11:57:19.291Z,36.98
2023-01-12T12:00:02.369Z,42.51
2023-01-12T12:02:37.256Z,38.18
2023-01-12T12:05:21.946Z,36.00
2023-01-12T12:08:09.082Z,33.94
2023-01-12T12:10:44.773Z,34.96
2023-01-12T12:13:25.739Z,33.08
2023-01-12T12:16:03.940Z,32.36
2023-01-12T12:18:43.922Z,32.84
2023-01-12T12:21:25.133Z,35.04
2023-01-12T12:24:04.214Z,36.39
2023-01-12T12:26:38.395Z,36.94
2023-01-12T12:29:22.039Z,35.85
2023-01-12T12:32:03.826Z,33.58
2023-01-12T12:35:06.728Z,37.75
2023-01-12T12:37:52.426Z,35.82
2023-01-12T12:40:56.404Z,38.25
2023-01-12T12:43:49.433Z,36.80
2023-01-12T12:46:27.975Z,38.30
2023-01-12T12:49:02.617Z,32.98
2023-01-12T12:51:34.017Z,33.52
2023-01-12T12:54:06.784Z,34.51
2023-01-12T12:56:38.109Z,34.34
2023-01-12T12:59:28.810Z,33.42
2023-01-12T13:01:58.592Z,33.84
2023-01-12T13:05:05.065Z,34.70
2023-01-12T13:07:38.061Z,36.24
2023-01-12T13:10:20.062Z,37.03
2023-01-12T13:12:58.578Z,36.97
2023-01-12T13:15:37.180Z,37.92
2023-01-12T13:18:07.320Z,37.84
2023-01-12T13:20:59.792Z,38.65
2023-01-12T13:23:49.480Z,40.46
2023-01-12T13:26:42.770Z,40.89
2023-01-12T13:29:39.844Z,40.32
2023-01-12T13:32:40.547Z,40.90
2023-01-12T13:35:26.834Z,41.74
2023-01-12T13:38:02.539Z,44.07
2023-01-12T13:40:32.320Z,42.55
2023-01-12T13:43:15.333Z,42.74
2023-01-12T13:45:51.921Z,43.30
2023-01-12T13:48:20.756Z,43.47
2023-01-12T13:50:53.900Z,42.98
2023-01-12T13:53:28.394Z,43.86
2023-01-12T13:55:58.946Z,45.59
2023-01-12T13:58:28.496Z,45.01
2023-01-12T14:00:59.688Z,45.10
2023-01-12T14:03:52.951Z,45.60
2023-01-12T14:06:31.796Z,46.52
2023-01-12T14:09:23.790Z,46.62
2023-01-12T14:12:17.874Z,46.17
2023-01-12T14:15:18.230Z,48.26
2023-01-12T14:17:57.779Z,46.83
2023-01-12T14:20:28.139Z,48.26
2023-01-12T14:23:16.315Z,48.18
2023-01-12T14:25:45.566Z,47.31
2023-01-12T14:28:19.067Z,48.40
2023-01-12T14:30:50.644Z,48.45
2023-01-12T14:33:21.689Z,48.54
2023-01-12T14:35:54.910Z,49.25
2023-01-12T14:38:27.851Z,49.73
2023-01-12T14:41:01.497Z,50.45
2023-01-12T14:43:49.716Z,51.18
2023-01-12T14:46:28.756Z,51.35
2023-01-12T14:49:04.647Z,53.12
2023-01-12T14:51:35.758Z,53.30
2023-01-12T14:54:19.771Z,53.77
2023-01-12T14:56:56.546Z,53.36
2023-01-12T14:59:28.920Z,54.63
2023-01-12T15:02:29.371Z,54.51
2023-01-12T15:05:01.592Z,55.70
2023-01-12T15:07:34.551Z,56.16
2023-01-12T15:10:26.143Z,57.29
2023-01-12T15:12:57.068Z,54.85
2023-01-12T15:15:51.244Z,55.19
2023-01-12T15:18:37.293Z,57.77
2023-01-12T15:21:23.309Z,56.12
2023-01-12T15:24:09.337Z,55.61
2023-01-12T15:26:39.094Z,55.52
2023-01-12T15:29:07.433Z,56.07
2023-01-12T15:31:38.554Z,57.45
2023-01-12T15:34:07.607Z,56.78
2023-01-12T15:36:35.936Z,56.45
2023-01-12T15:39:04.318Z,62.95
2023-01-12T15:41:50.845Z,57.80
2023-01-12T15:44:22.448Z,57.03
2023-01-12T15:46:50.744Z,57.07
2023-01-12T15:49:19.123Z,57.90
2023-01-12T15:51:50.134Z,65.82
2023-01-12T15:54:20.152Z,61.79
2023-01-12T15:56:49.140Z,58.30
2023-01-12T15:59:17.828Z,58.79
2023-01-12T16:01:50.086Z,61.55
2023-01-12T16:07:08.809Z,58.82
2023-01-12T16:09:37.597Z,58.76
2023-01-12T16:12:06.491Z,60.03
2023-01-12T16:14:35.196Z,60.44
2023-01-12T16:17:05.016Z,61.31
2023-01-12T16:19:33.861Z,60.05
2023-01-12T16:22:02.232Z,60.84
2023-01-12T16:24:32.482Z,60.07
2023-01-12T16:27:01.893Z,60.82
2023-01-12T16:29:30.374Z,63.29
2023-01-12T16:31:58.780Z,60.82
2023-01-12T16:34:28.530Z,60.24
2023-01-12T16:36:58.018Z,60.97
2023-01-12T16:39:28.030Z,61.14
2023-01-12T16:42:03.416Z,61.18
2023-01-12T16:44:32.749Z,60.35
2023-01-12T16:47:01.064Z,60.80
2023-01-12T16:49:30.901Z,60.90
2023-01-12T16:52:00.450Z,62.77
2023-01-12T16:54:29.177Z,61.15
2023-01-12T16:56:58.237Z,60.89
2023-01-12T16:59:26.773Z,62.45
2023-01-12T17:01:55.292Z,61.95
2023-01-12T17:04:23.833Z,62.57
2023-01-12T17:06:53.781Z,63.03
2023-01-12T17:09:22.239Z,63.36
2023-01-12T17:11:51.370Z,62.63
2023-01-12T17:14:27.646Z,63.49
2023-01-12T17:16:57.794Z,63.17
2023-01-12T17:19:27.983Z,63.13
2023-01-12T17:21:58.476Z,63.10
2023-01-12T17:24:27.501Z,62.97
2023-01-12T17:26:56.625Z,63.38
2023-01-12T17:29:26.919Z,63.99
2023-01-12T17:31:58.693Z,67.38
2023-01-12T17:34:29.852Z,64.38
2023-01-12T17:37:00.190Z,64.39
2023-01-12T17:39:28.484Z,64.22
2023-01-12T17:42:14.517Z,65.09
2023-01-12T17:44:43.444Z,65.00
2023-01-12T17:47:12.611Z,65.65
2023-01-12T17:49:40.867Z,66.60
2023-01-12T17:52:10.562Z,69.55
2023-01-12T17:54:39.163Z,71.36
2023-01-12T17:57:08.587Z,68.13
2023-01-12T17:59:37.424Z,68.44
2023-01-12T18:02:05.767Z,70.01
2023-01-12T18:04:34.294Z,66.91
2023-01-12T18:07:02.667Z,70.41
2023-01-12T18:09:32.529Z,68.90
2023-01-12T18:12:11.127Z,68.25
2023-01-12T18:14:39.678Z,67.04
2023-01-12T18:17:09.571Z,67.14
2023-01-12T18:19:38.403Z,67.21
2023-01-12T18:22:07.405Z,66.85
2023-01-12T18:24:37.649Z,68.00
2023-01-12T18:27:06.095Z,67.55
2023-01-12T18:29:34.812Z,67.07
2023-01-12T18:32:03.174Z,66.67
2023-01-12T18:34:31.532Z,66.23
2023-01-12T18:36:59.906Z,65.74
2023-01-12T18:39:31.084Z,65.49
2023-01-12T18:42:18.054Z,65.73
2023-01-12T18:44:47.842Z,68.39
2023-01-12T18:47:33.745Z,70.49
2023-01-12T18:50:23.154Z,67.36
2023-01-12T18:53:08.891Z,67.96
2023-01-12T18:55:38.471Z,67.81
2023-01-12T18:58:08.080Z,67.77
2023-01-12T19:00:36.334Z,67.15
2023-01-12T19:03:05.691Z,68.35
2023-01-12T19:05:43.377Z,68.52
2023-01-12T19:08:25.532Z,67.88
2023-01-12T19:10:53.934Z,68.76
2023-01-12T19:13:46.273Z,67.81
2023-01-12T19:16:32.695Z,68.67
2023-01-12T19:19:01.105Z,69.16
2023-01-12T19:21:46.937Z,69.48
2023-01-12T19:24:33.147Z,69.90
2023-01-12T19:27:23.878Z,69.69
2023-01-12T19:29:53.498Z,68.60
2023-01-12T19:32:21.837Z,67.42
2023-01-12T19:34:50.593Z,67.27
2023-01-12T19:37:22.425Z,67.72
2023-01-12T19:40:00.476Z,67.03
2023-01-12T19:42:46.839Z,67.48
2023-01-12T19:45:16.555Z,68.31
2023-01-12T19:47:44.879Z,68.80
2023-01-12T19:50:14.947Z,68.86
2023-01-12T19:52:44.394Z,68.50
2023-01-12T19:55:14.081Z,68.62
2023-01-12T19:57:44.264Z,69.24
2023-01-12T20:00:15.590Z,71.04
2023-01-12T20:02:45.909Z,70.68
2023-01-12T20:05:22.059Z,69.05
2023-01-12T20:07:51.546Z,68.07
2023-01-12T20:10:20.919Z,67.49
2023-01-12T20:12:51.441Z,68.32
2023-01-12T20:15:20.916Z,68.31
2023-01-12T20:17:51.459Z,68.66
2023-01-12T20:20:20.196Z,68.44
2023-01-12T20:22:50.872Z,68.34
2023-01-12T20:25:19.697Z,68.61
2023-01-12T20:27:49.386Z,68.34
2023-01-12T20:30:31.917Z,67.20
2023-01-12T20:33:06.768Z,67.07
2023-01-12T20:35:35.544Z,66.72
2023-01-12T20:38:06.966Z,66.58
2023-01-12T20:40:35.744Z,65.78
2023-01-12T20:43:04.096Z,66.81
2023-01-12T20:45:32.386Z,66.18
2023-01-12T20:48:00.688Z,65.39
2023-01-12T20:50:30.585Z,65.55
2023-01-12T20:52:58.986Z,65.93
2023-01-12T20:55:27.322Z,65.72
2023-01-12T20:57:55.595Z,65.89
2023-01-12T21:00:25.062Z,65.88
2023-01-12T21:02:53.364Z,66.56
2023-01-12T21:05:21.747Z,66.53
2023-01-12T21:07:56.957Z,67.12
2023-01-12T21:10:31.774Z,67.80
2023-01-12T21:13:00.131Z,67.63
2023-01-12T21:15:28.503Z,68.25
2023-01-12T21:17:56.840Z,69.15
2023-01-12T21:20:25.243Z,68.36
2023-01-12T21:22:54.899Z,68.55
2023-01-12T21:25:26.199Z,67.46
2023-01-12T21:27:54.418Z,67.79
2023-01-12T21:30:23.229Z,69.34
2023-01-12T21:32:53.041Z,68.96
2023-01-12T21:35:21.415Z,68.72
2023-01-12T21:37:51.443Z,69.51
2023-01-12T21:40:21.499Z,68.64
2023-01-12T21:43:07.247Z,68.30
2023-01-12T21:45:36.356Z,67.59
2023-01-12T21:48:04.866Z,68.33
2023-01-12T21:50:34.096Z,68.43
2023-01-12T21:53:03.843Z,68.44
2023-01-12T21:55:34.711Z,68.23
2023-01-12T21:58:03.256Z,68.95
2023-01-12T22:00:32.039Z,68.80
2023-01-12T22:03:00.646Z,68.45
2023-01-12T22:05:28.913Z,68.19
2023-01-12T22:07:57.903Z,68.37
2023-01-12T22:10:30.653Z,68.17
2023-01-12T22:13:03.065Z,68.68
2023-01-12T22:15:31.574Z,69.05
2023-01-12T22:18:00.789Z,67.83
2023-01-12T22:20:29.318Z,68.42
2023-01-12T22:22:57.891Z,68.98
2023-01-12T22:25:26.255Z,69.38
2023-01-12T22:27:54.762Z,68.82
2023-01-12T22:30:25.763Z,69.08
2023-01-12T22:32:55.863Z,69.54
2023-01-12T22:35:26.258Z,69.01
2023-01-12T22:37:55.957Z,69.49
2023-01-12T22:40:24.313Z,69.43
2023-01-12T22:43:10.207Z,69.91
2023-01-12T22:45:40.643Z,70.48
2023-01-12T22:48:08.984Z,70.66
2023-01-12T22:50:38.256Z,70.11
2023-01-12T22:53:06.730Z,70.09
2023-01-12T22:55:35.144Z,70.32
2023-01-12T22:58:03.433Z,70.87
2023-01-12T23:00:31.688Z,71.62
2023-01-12T23:03:01.881Z,70.47
2023-01-12T23:05:33.210Z,70.61
2023-01-12T23:08:01.576Z,71.73
2023-01-12T23:10:30.053Z,71.99
2023-01-12T23:13:14.855Z,72.00
2023-01-12T23:15:45.980Z,71.40
2023-01-12T23:18:18.020Z,72.77
2023-01-12T23:20:46.577Z,71.36
2023-01-12T23:23:17.759Z,72.00
2023-01-12T23:25:46.940Z,76.20
2023-01-12T23:28:16.267Z,71.93
2023-01-12T23:30:44.981Z,71.42
2023-01-12T23:33:13.292Z,70.90
2023-01-12T23:35:44.043Z,70.26
2023-01-12T23:38:16.533Z,70.21
2023-01-12T23:40:44.723Z,69.91
2023-01-12T23:43:13.011Z,70.82
2023-01-12T23:45:41.390Z,70.58
2023-01-12T23:48:09.692Z,70.12
2023-01-12T23:50:37.999Z,71.30
2023-01-12T23:53:07.719Z,71.47
2023-01-12T23:55:39.243Z,71.94
2023-01-12T23:58:08.305Z,71.62
